createdAt,value
2023-02-08T00:01:16.388Z,17.77
2023-02-08T00:03:47.053Z,17.00
2023-02-08T00:06:17.318Z,17.60
2023-02-08T00:08:45.470Z,17.57
2023-02-08T00:11:14.112Z,16.93
2023-02-08T00:13:42.929Z,17.10
2023-02-08T00:16:12.328Z,16.83
2023-02-08T00:18:40.736Z,17.80
2023-02-08T00:21:10.843Z,17.63
2023-02-08T00:23:40.627Z,17.63
2023-02-08T00:26:09.147Z,17.93
2023-02-08T00:28:37.572Z,17.90
2023-02-08T00:31:06.181Z,16.67
2023-02-08T00:33:34.313Z,17.70
2023-02-08T00:36:03.521Z,17.37
2023-02-08T00:38:31.724Z,17.23
2023-02-08T00:41:01.173Z,32.10
2023-02-08T00:43:29.206Z,40.77
2023-02-08T00:45:57.820Z,41.27
2023-02-08T00:48:26.161Z,40.53
2023-02-08T00:51:02.010Z,40.73
2023-02-08T00:53:30.070Z,40.33
2023-02-08T00:55:58.462Z,17.90
2023-02-08T00:58:27.813Z,42.37
2023-02-08T01:00:56.179Z,41.33
2023-02-08T01:03:25.150Z,41.43
2023-02-08T01:05:53.833Z,41.13
2023-02-08T01:08:22.103Z,42.40
2023-02-08T01:10:50.136Z,41.83
2023-02-08T01:13:18.520Z,18.27
2023-02-08T01:15:47.900Z,40.73
2023-02-08T01:18:15.852Z,41.67
2023-02-08T01:20:43.942Z,39.67
2023-02-08T01:23:11.931Z,40.97
2023-02-08T01:25:39.950Z,41.30
2023-02-08T01:28:07.978Z,42.23
2023-02-08T01:30:36.039Z,41.13
2023-02-08T01:33:05.459Z,40.93
2023-02-08T01:35:33.404Z,41.10
2023-02-08T01:38:01.555Z,17.30
2023-02-08T01:40:29.596Z,17.80
2023-02-08T01:42:57.607Z,17.37
2023-02-08T01:45:28.240Z,17.87
2023-02-08T01:48:04.350Z,17.70
2023-02-08T01:50:40.614Z,18.43
2023-02-08T01:53:09.393Z,17.30
2023-02-08T01:55:41.055Z,18.30
2023-02-08T01:58:11.386Z,17.63
2023-02-08T02:00:39.639Z,17.70
2023-02-08T02:03:08.189Z,17.40
2023-02-08T02:05:42.472Z,17.63
2023-02-08T02:08:12.165Z,17.43
2023-02-08T02:10:41.806Z,16.83
2023-02-08T02:13:13.150Z,17.30
2023-02-08T02:15:41.591Z,17.20
2023-02-08T02:18:10.340Z,17.30
2023-02-08T02:21:03.940Z,18.00
2023-02-08T02:24:11.798Z,17.20
2023-02-08T02:27:15.454Z,17.10
2023-02-08T02:30:25.065Z,17.53
2023-02-08T02:33:16.436Z,40.53
2023-02-08T02:35:48.780Z,41.33
2023-02-08T02:38:26.495Z,38.80
2023-02-08T02:41:07.227Z,41.97
2023-02-08T02:43:46.369Z,40.00
2023-02-08T02:46:26.111Z,41.83
2023-02-08T02:49:02.291Z,40.23
2023-02-08T02:51:39.707Z,39.50
2023-02-08T02:54:12.561Z,17.20
2023-02-08T02:56:44.282Z,17.97
2023-02-08T02:59:14.167Z,16.67
2023-02-08T03:01:45.138Z,16.93
2023-02-08T03:04:19.705Z,17.40
2023-02-08T03:07:02.749Z,18.13
2023-02-08T03:09:45.242Z,17.83
2023-02-08T03:12:27.032Z,17.40
2023-02-08T03:14:59.871Z,17.17
2023-02-08T03:17:42.763Z,17.50
2023-02-08T03:20:15.007Z,18.23
2023-02-08T03:22:50.966Z,18.37
2023-02-08T03:25:23.913Z,39.30
2023-02-08T03:28:07.048Z,38.17
2023-02-08T03:30:46.037Z,42.13
2023-02-08T03:33:19.060Z,41.27
2023-02-08T03:35:57.408Z,40.23
2023-02-08T03:38:31.119Z,41.93
2023-02-08T03:41:02.508Z,40.70
2023-02-08T03:43:34.622Z,39.60
2023-02-08T03:46:07.681Z,39.13
2023-02-08T03:48:38.087Z,39.83
2023-02-08T03:51:09.174Z,40.90
2023-02-08T03:53:40.567Z,41.03
2023-02-08T03:56:12.036Z,41.80
2023-02-08T03:58:44.847Z,41.37
2023-02-08T04:01:17.739Z,40.77
2023-02-08T04:03:48.796Z,40.37
2023-02-08T04:06:18.384Z,41.73
2023-02-08T04:08:46.475Z,40.97
2023-02-08T04:11:14.478Z,38.80
2023-02-08T04:13:42.465Z,42.83
2023-02-08T04:16:12.981Z,39.77
2023-02-08T04:18:41.021Z,42.57
2023-02-08T04:21:11.007Z,39.47
2023-02-08T04:23:40.346Z,39.40
2023-02-08T04:26:08.845Z,39.50
2023-02-08T04:28:37.089Z,40.57
2023-02-08T04:31:05.233Z,39.53
2023-02-08T04:33:33.338Z,37.60
2023-02-08T04:36:01.353Z,40.70
2023-02-08T04:38:29.542Z,38.47
2023-02-08T04:40:58.835Z,40.23
2023-02-08T04:43:26.832Z,40.20
2023-02-08T04:45:54.961Z,38.83
2023-02-08T04:48:23.035Z,39.27
2023-02-08T04:50:51.129Z,40.67
2023-02-08T04:53:19.078Z,41.50
2023-02-08T04:55:47.131Z,39.13
2023-02-08T04:58:16.496Z,41.87
2023-02-08T05:00:44.789Z,38.77
2023-02-08T05:03:13.412Z,40.57
2023-02-08T05:05:41.485Z,39.90
2023-02-08T05:08:10.011Z,41.27
2023-02-08T05:10:38.233Z,39.97
2023-02-08T05:13:06.333Z,40.13
2023-02-08T05:15:36.211Z,40.10
2023-02-08T05:18:04.180Z,40.00
2023-02-08T05:20:33.709Z,39.50
2023-02-08T05:23:01.764Z,39.33
2023-02-08T05:25:29.853Z,39.40
2023-02-08T05:27:57.993Z,40.37
2023-02-08T05:30:25.961Z,40.83
2023-02-08T05:32:55.352Z,37.27
2023-02-08T05:35:23.340Z,41.27
2023-02-08T05:37:51.386Z,38.60
2023-02-08T05:40:19.604Z,40.30
2023-02-08T05:42:48.012Z,41.40
2023-02-08T05:45:16.027Z,39.97
2023-02-08T05:47:44.048Z,40.07
2023-02-08T05:50:13.427Z,41.27
2023-02-08T05:52:41.732Z,41.20
2023-02-08T05:55:10.133Z,42.40
2023-02-08T05:57:38.968Z,41.93
2023-02-08T06:00:08.233Z,41.77
2023-02-08T06:02:36.417Z,42.00
2023-02-08T06:05:04.483Z,43.17
2023-02-08T06:07:33.868Z,45.37
2023-02-08T06:10:01.864Z,41.37
2023-02-08T06:12:29.878Z,43.30
2023-02-08T06:14:57.874Z,41.13
2023-02-08T06:17:25.878Z,45.93
2023-02-08T06:19:55.007Z,41.47
2023-02-08T06:22:22.983Z,41.63
2023-02-08T06:24:52.359Z,45.63
2023-02-08T06:27:20.817Z,42.53
2023-02-08T06:29:48.793Z,47.63
2023-02-08T06:32:16.775Z,48.97
2023-02-08T06:34:44.800Z,49.17
2023-02-08T06:37:12.859Z,48.03
2023-02-08T06:39:41.495Z,47.50
2023-02-08T06:42:11.153Z,50.73
2023-02-08T06:44:45.919Z,49.70
2023-02-08T06:47:19.603Z,40.53
2023-02-08T06:49:47.571Z,39.63
2023-02-08T06:52:15.560Z,41.37
2023-02-08T06:54:43.782Z,41.30
2023-02-08T06:57:13.380Z,40.37
2023-02-08T06:59:41.479Z,39.63
2023-02-08T07:02:13.817Z,42.53
2023-02-08T07:04:41.873Z,40.40
2023-02-08T07:07:10.039Z,42.20
2023-02-08T07:09:38.278Z,39.87
2023-02-08T07:12:06.930Z,40.30
2023-02-08T07:14:38.431Z,41.57
2023-02-08T07:17:06.727Z,40.77
2023-02-08T07:19:34.882Z,40.23
2023-02-08T07:22:08.138Z,38.37
2023-02-08T07:24:36.858Z,39.83
2023-02-08T07:27:05.801Z,43.20
2023-02-08T07:29:34.829Z,41.23
2023-02-08T07:32:05.352Z,40.90
2023-02-08T07:34:35.416Z,37.57
2023-02-08T07:37:03.523Z,41.40
2023-02-08T07:39:31.689Z,43.53
2023-02-08T07:41:59.858Z,41.03
2023-02-08T07:44:27.886Z,43.47
2023-02-08T07:46:56.132Z,45.10
2023-02-08T07:49:25.618Z,42.17
2023-02-08T07:51:53.561Z,41.37
2023-02-08T07:54:21.622Z,40.63
2023-02-08T07:56:49.772Z,53.60
2023-02-08T07:59:17.807Z,42.27
2023-02-08T08:01:45.981Z,42.03
2023-02-08T08:04:14.072Z,44.37
2023-02-08T08:06:43.435Z,42.97
2023-02-08T08:09:11.640Z,44.83
2023-02-08T08:11:39.610Z,42.77
2023-02-08T08:14:07.634Z,46.20
2023-02-08T08:16:35.811Z,45.87
2023-02-08T08:19:03.866Z,45.83
2023-02-08T08:21:31.839Z,45.03
2023-02-08T08:24:01.229Z,47.67
2023-02-08T08:26:29.761Z,48.80
2023-02-08T08:28:57.975Z,45.87
2023-02-08T08:31:26.165Z,49.97
2023-02-08T08:33:54.314Z,44.97
2023-02-08T08:36:22.352Z,22.30
2023-02-08T08:38:50.390Z,28.10
2023-02-08T08:41:22.244Z,27.73
2023-02-08T08:43:50.417Z,27.37
2023-02-08T08:46:18.378Z,28.13
2023-02-08T08:48:47.267Z,27.57
2023-02-08T08:51:15.837Z,42.57
2023-02-08T08:53:43.926Z,45.40
2023-02-08T08:56:12.044Z,48.23
2023-02-08T08:58:41.421Z,43.57
2023-02-08T09:01:09.442Z,43.60
2023-02-08T09:03:37.630Z,47.07
2023-02-08T09:06:05.956Z,44.13
2023-02-08T09:08:33.947Z,50.13
2023-02-08T09:11:06.645Z,24.37
2023-02-08T09:13:34.944Z,30.17
2023-02-08T09:16:10.399Z,21.87
2023-02-08T09:18:38.662Z,21.77
2023-02-08T09:21:07.833Z,49.73
2023-02-08T09:23:35.851Z,46.90
2023-02-08T09:26:04.680Z,44.53
2023-02-08T09:28:33.175Z,44.00
2023-02-08T09:31:07.968Z,41.10
2023-02-08T09:33:37.627Z,39.90
2023-02-08T09:36:06.704Z,44.17
2023-02-08T09:38:35.666Z,42.07
2023-02-08T09:41:15.289Z,41.63
2023-02-08T09:43:51.314Z,41.90
2023-02-08T09:46:22.508Z,40.13
2023-02-08T09:48:53.982Z,40.60
2023-02-08T09:51:30.848Z,43.57
2023-02-08T09:54:03.033Z,43.43
2023-02-08T09:56:36.284Z,43.10
2023-02-08T09:59:06.275Z,42.53
2023-02-08T10:01:36.953Z,41.07
2023-02-08T10:04:13.406Z,56.33
2023-02-08T10:06:41.682Z,44.00
2023-02-08T10:09:15.483Z,44.60
2023-02-08T10:11:58.183Z,45.27
2023-02-08T10:14:45.177Z,44.23
2023-02-08T10:17:44.260Z,43.67
2023-02-08T10:20:26.257Z,44.23
2023-02-08T10:23:05.186Z,46.03
2023-02-08T10:25:53.006Z,42.73
2023-02-08T10:28:58.841Z,45.20
2023-02-08T10:31:39.857Z,44.77
2023-02-08T10:34:21.192Z,47.13
2023-02-08T10:36:50.601Z,43.30
2023-02-08T10:39:21.553Z,44.90
2023-02-08T10:41:49.560Z,44.50
2023-02-08T10:44:28.138Z,42.73
2023-02-08T10:47:04.463Z,45.37
2023-02-08T10:49:40.017Z,44.97
2023-02-08T10:52:09.405Z,42.63
2023-02-08T10:54:37.550Z,43.03
2023-02-08T10:57:12.803Z,46.53
2023-02-08T10:59:50.692Z,44.43
2023-02-08T11:02:26.374Z,44.77
2023-02-08T11:05:03.124Z,45.27
2023-02-08T11:07:36.220Z,47.97
2023-02-08T11:10:24.757Z,47.57
2023-02-08T11:12:58.477Z,48.13
2023-02-08T11:15:29.011Z,49.00
2023-02-08T11:18:01.184Z,45.17
2023-02-08T11:20:36.648Z,46.77
2023-02-08T11:23:08.117Z,46.70
2023-02-08T11:25:39.172Z,45.93
2023-02-08T11:28:23.908Z,47.50
2023-02-08T11:31:00.361Z,47.13
2023-02-08T11:33:29.741Z,47.90
2023-02-08T11:36:15.674Z,46.87
2023-02-08T11:38:45.002Z,44.83
2023-02-08T11:41:19.079Z,46.43
2023-02-08T11:43:57.952Z,50.37
2023-02-08T11:46:28.574Z,48.43
2023-02-08T11:48:57.519Z,46.57
2023-02-08T11:51:29.654Z,49.77
2023-02-08T11:54:00.504Z,23.60
2023-02-08T11:56:31.148Z,20.43
2023-02-08T11:59:03.362Z,20.53
2023-02-08T12:01:33.585Z,22.20
2023-02-08T12:04:05.435Z,22.20
2023-02-08T12:06:57.062Z,22.30
2023-02-08T12:09:42.079Z,21.20
2023-02-08T12:12:19.502Z,19.70
2023-02-08T12:14:55.237Z,22.30
2023-02-08T12:17:47.601Z,21.30
2023-02-08T12:20:36.186Z,19.33
2023-02-08T12:23:36.826Z,18.30
2023-02-08T12:26:15.500Z,17.40
2023-02-08T12:28:54.696Z,19.00
2023-02-08T12:31:37.082Z,16.67
2023-02-08T12:34:16.425Z,21.50
2023-02-08T12:37:14.012Z,19.17
2023-02-08T12:40:06.466Z,18.70
2023-02-08T12:42:45.801Z,18.00
2023-02-08T12:45:35.775Z,21.33
2023-02-08T12:48:17.978Z,22.43
2023-02-08T12:50:53.299Z,21.00
2023-02-08T12:53:25.817Z,21.20
2023-02-08T12:55:57.540Z,27.13
2023-02-08T12:58:31.219Z,22.50
2023-02-08T13:01:06.600Z,19.77
2023-02-08T13:03:45.128Z,17.83
2023-02-08T13:06:19.423Z,22.53
2023-02-08T13:08:51.617Z,21.73
2023-02-08T13:11:29.242Z,26.23
2023-02-08T13:14:04.735Z,22.20
2023-02-08T13:16:36.931Z,25.33
2023-02-08T13:19:25.820Z,22.50
2023-02-08T13:21:55.546Z,24.27
2023-02-08T13:24:31.432Z,22.10
2023-02-08T13:26:59.467Z,33.90
2023-02-08T13:29:30.540Z,36.20
2023-02-08T13:32:03.315Z,33.50
2023-02-08T13:34:37.155Z,25.57
2023-02-08T13:37:24.113Z,23.73
2023-02-08T13:40:01.415Z,22.10
2023-02-08T13:42:31.861Z,24.43
2023-02-08T13:45:03.034Z,24.37
2023-02-08T13:47:33.925Z,23.83
2023-02-08T13:50:07.385Z,29.23
2023-02-08T13:52:52.874Z,23.20
2023-02-08T13:55:46.014Z,24.60
2023-02-08T13:58:55.381Z,21.97
2023-02-08T14:01:27.696Z,23.23
2023-02-08T14:04:18.295Z,23.23
2023-02-08T14:06:51.052Z,19.43
2023-02-08T14:09:26.359Z,32.73
2023-02-08T14:12:01.196Z,26.37
2023-02-08T14:14:31.956Z,33.93
2023-02-08T14:17:29.778Z,34.57
2023-02-08T14:20:00.750Z,37.13
2023-02-08T14:22:36.607Z,42.03
2023-02-08T14:25:07.844Z,23.50
2023-02-08T14:27:40.658Z,20.70
2023-02-08T14:30:21.072Z,20.23
2023-02-08T14:32:53.205Z,21.70
2023-02-08T14:35:24.826Z,22.87
2023-02-08T14:38:31.275Z,21.60
2023-02-08T14:41:00.428Z,18.07
2023-02-08T14:43:34.877Z,19.27
2023-02-08T14:46:40.309Z,19.80
2023-02-08T14:49:12.754Z,20.03
2023-02-08T14:51:44.073Z,22.10
2023-02-08T14:54:24.332Z,20.33
2023-02-08T14:56:59.384Z,21.50
2023-02-08T14:59:35.255Z,21.77
2023-02-08T15:02:12.529Z,23.23
2023-02-08T15:04:47.234Z,19.73
2023-02-08T15:07:23.589Z,25.57
2023-02-08T15:09:51.764Z,24.60
2023-02-08T15:12:25.974Z,19.33
2023-02-08T15:14:55.295Z,21.07
2023-02-08T15:17:32.071Z,20.10
2023-02-08T15:20:03.177Z,20.83
2023-02-08T15:22:34.787Z,20.23
2023-02-08T15:25:14.347Z,22.10
2023-02-08T15:27:48.666Z,26.43
2023-02-08T15:30:28.546Z,24.60
2023-02-08T15:32:57.014Z,22.53
2023-02-08T15:35:28.000Z,22.43
2023-02-08T15:37:57.061Z,27.03
2023-02-08T15:40:30.540Z,26.20
2023-02-08T15:43:05.046Z,25.93
2023-02-08T15:45:33.220Z,21.53
2023-02-08T15:48:02.737Z,22.10
2023-02-08T15:50:33.415Z,17.73
2023-02-08T15:53:04.661Z,18.30
2023-02-08T15:55:39.510Z,18.13
2023-02-08T15:58:16.478Z,18.03
2023-02-08T16:00:47.392Z,19.47
2023-02-08T16:03:23.630Z,18.30
2023-02-08T16:05:55.900Z,19.07
2023-02-08T16:08:28.061Z,18.60
2023-02-08T16:10:59.851Z,18.90
2023-02-08T16:13:31.037Z,17.83
2023-02-08T16:16:15.900Z,18.10
2023-02-08T16:18:46.149Z,19.40
2023-02-08T16:21:41.485Z,19.37
2023-02-08T16:24:22.013Z,17.97
2023-02-08T16:27:03.720Z,18.53
2023-02-08T16:29:33.675Z,18.43
2023-02-08T16:32:07.120Z,19.73
2023-02-08T16:34:39.516Z,19.47
2023-02-08T16:37:24.241Z,19.73
2023-02-08T16:39:54.426Z,21.48
2023-02-08T16:42:31.516Z,21.13
2023-02-08T16:45:18.271Z,19.00
2023-02-08T16:47:50.197Z,20.40
2023-02-08T16:50:20.634Z,20.20
2023-02-08T16:52:55.431Z,19.03
2023-02-08T16:55:25.797Z,18.67
2023-02-08T16:57:55.973Z,22.10
2023-02-08T17:00:26.531Z,20.40
2023-02-08T17:02:55.199Z,20.87
2023-02-08T17:05:28.685Z,19.57
2023-02-08T17:07:58.850Z,21.67
2023-02-08T17:10:29.273Z,41.67
2023-02-08T17:13:13.480Z,42.57
2023-02-08T17:15:46.257Z,47.93
2023-02-08T17:18:14.617Z,48.13
2023-02-08T17:20:43.029Z,49.07
2023-02-08T17:23:13.064Z,49.17
2023-02-08T17:25:41.426Z,47.93
2023-02-08T17:28:15.005Z,48.13
2023-02-08T17:30:45.055Z,49.00
2023-02-08T17:33:18.114Z,21.90
2023-02-08T17:35:47.988Z,21.40
2023-02-08T17:38:17.878Z,23.80
2023-02-08T17:40:46.381Z,24.10
2023-02-08T17:43:14.960Z,21.70
2023-02-08T17:45:45.102Z,22.20
2023-02-08T17:48:14.357Z,23.20
2023-02-08T17:50:43.980Z,22.13
2023-02-08T17:53:12.296Z,22.40
2023-02-08T17:55:44.213Z,22.73
2023-02-08T17:58:12.878Z,33.57
2023-02-08T18:00:41.062Z,22.37
2023-02-08T18:03:09.175Z,25.83
2023-02-08T18:05:37.966Z,22.43
2023-02-08T18:08:06.365Z,22.43
2023-02-08T18:10:34.385Z,22.93
2023-02-08T18:13:03.784Z,21.63
2023-02-08T18:15:31.921Z,21.10
2023-02-08T18:17:59.916Z,21.63
2023-02-08T18:20:28.420Z,46.53
2023-02-08T18:22:56.422Z,47.77
2023-02-08T18:25:24.480Z,48.83
2023-02-08T18:27:52.504Z,50.83
2023-02-08T18:30:22.732Z,48.90
2023-02-08T18:32:50.710Z,49.00
2023-02-08T18:35:20.849Z,48.00
2023-02-08T18:37:49.591Z,50.47
2023-02-08T18:40:18.430Z,51.70
2023-02-08T18:42:54.044Z,51.20
2023-02-08T18:45:24.842Z,22.67
2023-02-08T18:47:54.594Z,22.10
2023-02-08T18:50:24.111Z,22.83
2023-02-08T18:52:52.202Z,22.27
2023-02-08T18:55:20.177Z,22.20
2023-02-08T18:57:48.649Z,23.83
2023-02-08T19:00:17.298Z,24.67
2023-02-08T19:02:46.863Z,23.70
2023-02-08T19:05:14.912Z,22.80
2023-02-08T19:07:42.868Z,23.67
2023-02-08T19:10:10.984Z,22.80
2023-02-08T19:12:38.991Z,23.53
2023-02-08T19:15:07.704Z,22.73
2023-02-08T19:17:35.676Z,21.60
2023-02-08T19:20:05.597Z,21.23
2023-02-08T19:22:33.595Z,22.10
2023-02-08T19:25:01.722Z,21.50
2023-02-08T19:27:29.799Z,21.67
2023-02-08T19:29:57.840Z,21.87
2023-02-08T19:32:25.857Z,21.60
2023-02-08T19:34:53.917Z,21.50
2023-02-08T19:37:23.329Z,21.30
2023-02-08T19:39:51.281Z,22.17
2023-02-08T19:42:19.315Z,51.47
2023-02-08T19:44:47.283Z,47.03
2023-02-08T19:47:15.367Z,46.50
2023-02-08T19:49:43.366Z,44.37
2023-02-08T19:52:11.468Z,46.33
2023-02-08T19:54:40.789Z,46.73
2023-02-08T19:57:11.799Z,44.93
2023-02-08T19:59:39.810Z,45.13
2023-02-08T20:02:11.549Z,45.93
2023-02-08T20:04:40.000Z,44.77
2023-02-08T20:07:08.764Z,46.13
2023-02-08T20:09:36.814Z,44.73
2023-02-08T20:12:08.767Z,45.40
2023-02-08T20:14:36.758Z,42.23
2023-02-08T20:17:05.512Z,42.60
2023-02-08T20:19:36.171Z,46.57
2023-02-08T20:22:04.999Z,46.03
2023-02-08T20:24:32.942Z,45.13
2023-02-08T20:27:01.035Z,45.57
2023-02-08T20:29:30.763Z,44.40
2023-02-08T20:32:00.594Z,45.20
2023-02-08T20:34:28.684Z,43.73
2023-02-08T20:37:12.139Z,18.80
2023-02-08T20:39:40.123Z,21.43
2023-02-08T20:42:11.358Z,19.07
2023-02-08T20:44:40.724Z,21.50
2023-02-08T20:47:08.979Z,21.10
2023-02-08T20:49:38.866Z,20.27
2023-02-08T20:52:07.003Z,22.03
2023-02-08T20:54:34.982Z,21.37
2023-02-08T20:57:03.042Z,20.17
2023-02-08T20:59:31.296Z,20.17
2023-02-08T21:02:00.732Z,45.60
2023-02-08T21:04:28.782Z,44.87
2023-02-08T21:06:56.863Z,45.57
2023-02-08T21:09:24.917Z,46.50
2023-02-08T21:11:53.336Z,46.60
2023-02-08T21:14:23.576Z,47.83
2023-02-08T21:16:53.923Z,48.67
2023-02-08T21:19:24.136Z,45.90
2023-02-08T21:21:52.257Z,46.97
2023-02-08T21:24:20.880Z,44.60
2023-02-08T21:26:48.915Z,45.53
2023-02-08T21:29:16.983Z,22.27
2023-02-08T21:31:45.153Z,20.87
2023-02-08T21:34:13.878Z,20.33
2023-02-08T21:36:43.227Z,18.80
2023-02-08T21:39:11.584Z,19.10
2023-02-08T21:41:39.610Z,17.10
2023-02-08T21:44:08.331Z,17.40
2023-02-08T21:46:36.964Z,18.00
2023-02-08T21:49:22.637Z,18.60
2023-02-08T21:52:09.794Z,19.40
2023-02-08T21:54:44.558Z,18.73
2023-02-08T21:57:16.046Z,19.97
2023-02-08T21:59:44.459Z,19.70
2023-02-08T22:02:15.788Z,18.50
2023-02-08T22:05:01.609Z,18.80
2023-02-08T22:07:31.155Z,18.70
2023-02-08T22:09:59.238Z,19.73
2023-02-08T22:12:27.240Z,18.20
2023-02-08T22:14:55.264Z,18.00
2023-02-08T22:17:24.305Z,18.60
2023-02-08T22:19:52.284Z,18.90
2023-02-08T22:22:21.371Z,20.47
2023-02-08T22:24:50.711Z,18.30
2023-02-08T22:27:18.816Z,20.30
2023-02-08T22:29:46.832Z,19.17
2023-02-08T22:32:17.050Z,41.20
2023-02-08T22:34:47.694Z,40.13
2023-02-08T22:37:16.616Z,42.10
2023-02-08T22:39:44.664Z,43.77
2023-02-08T22:42:14.819Z,42.87
2023-02-08T22:44:44.482Z,41.93
2023-02-08T22:47:13.630Z,42.43
2023-02-08T22:49:42.134Z,44.40
2023-02-08T22:52:10.650Z,43.43
2023-02-08T22:54:39.280Z,18.27
2023-02-08T22:57:09.151Z,18.00
2023-02-08T22:59:39.744Z,18.33
2023-02-08T23:02:08.198Z,18.47
2023-02-08T23:04:37.163Z,18.70
2023-02-08T23:07:05.752Z,19.67
2023-02-08T23:09:33.688Z,18.87
2023-02-08T23:12:01.705Z,17.30
2023-02-08T23:14:29.734Z,18.30
2023-02-08T23:16:59.139Z,18.50
2023-02-08T23:19:27.184Z,19.10
2023-02-08T23:21:58.451Z,18.20
2023-02-08T23:24:26.547Z,17.80
2023-02-08T23:26:54.608Z,18.20
2023-02-08T23:29:22.641Z,18.33
2023-02-08T23:31:50.825Z,17.93
2023-02-08T23:34:20.540Z,18.87
2023-02-08T23:36:48.788Z,17.33
2023-02-08T23:39:16.991Z,17.70
2023-02-08T23:41:44.956Z,18.20
2023-02-08T23:44:13.411Z,17.23
2023-02-08T23:46:41.461Z,18.33
2023-02-08T23:49:09.476Z,16.33
2023-02-08T23:51:38.833Z,17.20
2023-02-08T23:54:07.121Z,17.90
2023-02-08T23:56:35.266Z,17.23
2023-02-08T23:59:05.734Z,18.50
